Terminal Aerodrome Forecast
Issued by NWS

Current Version | Previous Version | Text Only | Print | Product List | Glossary On
Versions: 1 2 3 4 5 6 7 8 9 10 11 12
000
FTUS45 KGJT 171127
TAFEGE
TAF
KEGE 171127Z 1712/1812 12004KT P6SM FEW250
     FM171900 24006KT P6SM FEW250
     FM180200 17005KT P6SM FEW250
     FM180600 12004KT P6SM FEW250
      AMD LTD TO CLD VIS AND WIND TIL 171300=

USA.gov is the U.S. government's official web portal to all federal, state and local government web resources and services.